Time;durP1;ratioP1;P1;durP2;ratioP2;P2;SDS_P1;SDS_P2;PMS_P1;PMS_P2;Temp;Humidity;BMP_temperature;BMP_pressure;BME280_temperature;BME280_humidity;BME280_pressure;Samples;Min_cycle;Max_cycle;Signal;HPM_P1;HPM_P2
2021/08/20 00:01:45;;;;;;;;;;;;;;;;;;5082188;28;1274;-57
2021/08/20 00:04:10;;;;;;;;;;;;;;;;;;5081427;28;1251;-57
2021/08/20 00:06:35;;;;;;;;;;;;;;;;;;5082463;28;1590;-57
2021/08/20 00:09:00;;;;;;;;;;;;;;;;;;5079595;28;1050;-58
2021/08/20 00:11:25;;;;;;;;;;;;;;;;;;5080987;28;1266;-58
2021/08/20 00:13:51;;;;;;;;;;;;;;;;;;5080923;28;1594;-58
2021/08/20 00:16:16;;;;;;;;;;;;;;;;;;5081750;28;1352;-57
2021/08/20 00:18:41;;;;;;;;;;;;;;;;;;5079809;28;1961;-58
2021/08/20 00:21:08;;;;;;;;;;;;;;;;;;5076687;28;1692;-57
2021/08/20 00:23:33;;;;;;;;;;;;;;;;;;5080560;28;1183;-57
2021/08/20 00:25:58;;;;;;;;;;;;;;;;;;5079815;28;1353;-57
2021/08/20 00:28:23;;;;;;;;;;;;;;;;;;5078142;28;1605;-57
2021/08/20 00:30:48;;;;;;;;;;;;;;;;;;5079366;28;1302;-57
2021/08/20 00:33:14;;;;;;;;;;;;;;;;;;5080716;28;1152;-57
2021/08/20 00:35:39;;;;;;;;;;;;;;;;;;5077965;28;1475;-58
2021/08/20 00:38:04;;;;;;;;;;;;;;;;;;5077626;28;1967;-57
2021/08/20 00:40:29;;;;;;;;;;;;;;;;;;5078782;28;1384;-57
2021/08/20 00:42:54;;;;;;;;;;;;;;;;;;5077729;28;1596;-57
2021/08/20 00:45:19;;;;;;;;;;;;;;;;;;5073349;28;1671;-56
2021/08/20 00:47:45;;;;;;;;;;;;;;;;;;5078866;28;1433;-57
2021/08/20 00:50:10;;;;;;;;;;;;;;;;;;5079345;28;1215;-58
2021/08/20 00:52:35;;;;;;;;;;;;;;;;;;5078845;28;1180;-58
2021/08/20 00:55:00;;;;;;;;;;;;;;;;;;5077792;28;1570;-58
2021/08/20 00:57:26;;;;;;;;;;;;;;;;;;5058567;28;1975;-58
2021/08/20 00:59:51;;;;;;;;;;;;;;;;;;5074561;28;1327;-56
2021/08/20 01:02:16;;;;;;;;;;;;;;;;;;5074680;28;1183;-58
2021/08/20 01:04:41;;;;;;;;;;;;;;;;;;5073593;28;1558;-56
2021/08/20 01:07:06;;;;;;;;;;;;;;;;;;5078259;28;1433;-57
2021/08/20 01:09:32;;;;;;;;;;;;;;;;;;5080043;28;1109;-57
2021/08/20 01:11:57;;;;;;;;;;;;;;;;;;5075300;28;1568;-57
2021/08/20 01:14:26;;;;;;;;;;;;;;;;;;5076450;28;1633;-57
2021/08/20 01:16:51;;;;;;;;;;;;;;;;;;5076405;28;1414;-57
2021/08/20 01:19:16;;;;;;;;;;;;;;;;;;5063613;28;1929;-57
2021/08/20 01:21:41;;;;;;;;;;;;;;;;;;5079269;28;1322;-56
2021/08/20 01:24:07;;;;;;;;;;;;;;;;;;5078604;28;1068;-56
2021/08/20 01:26:32;;;;;;;;;;;;;;;;;;5061127;28;1298;-56
2021/08/20 01:28:58;;;;;;;;;;;;;;;;;;5077130;28;1618;-57
2021/08/20 01:31:24;;;;;;;;;;;;;;;;;;5079168;28;1094;-58
2021/08/20 01:33:49;;;;;;;;;;;;;;;;;;5080001;28;1199;-58
2021/08/20 01:36:14;;;;;;;;;;;;;;;;;;5076299;28;1522;-57
2021/08/20 01:38:57;;;;;;;;;;;;;;;;;;5079731;28;1961;-57
2021/08/20 01:41:23;;;;;;;;;;;;;;;;;;5082686;28;1478;-57
2021/08/20 01:43:49;;;;;;;;;;;;;;;;;;5080565;28;1510;-57
2021/08/20 01:46:14;;;;;;;;;;;;;;;;;;5081630;28;1269;-57
2021/08/20 01:48:49;;;;;;;;;;;;;;;;;;5080920;28;1035;-57
2021/08/20 01:51:14;;;;;;;;;;;;;;;;;;5080647;28;1231;-58
2021/08/20 01:53:40;;;;;;;;;;;;;;;;;;5080783;28;1582;-57
2021/08/20 01:56:05;;;;;;;;;;;;;;;;;;5081502;28;1381;-57
2021/08/20 01:58:30;;;;;;;;;;;;;;;;;;5079989;28;1955;-58
2021/08/20 02:00:55;;;;;;;;;;;;;;;;;;5078356;28;1539;-57
2021/08/20 02:03:20;;;;;;;;;;;;;;;;;;5083148;28;1168;-58
2021/08/20 02:05:46;;;;;;;;;;;;;;;;;;5075868;28;1701;-57
2021/08/20 02:08:11;;;;;;;;;;;;;;;;;;5081718;28;1319;-57
2021/08/20 02:10:36;;;;;;;;;;;;;;;;;;5079133;28;1606;-57
2021/08/20 02:13:01;;;;;;;;;;;;;;;;;;5079475;28;1598;-57
2021/08/20 02:15:27;;;;;;;;;;;;;;;;;;5081243;28;1471;-57
2021/08/20 02:17:52;;;;;;;;;;;;;;;;;;5080557;28;1906;-57
2021/08/20 02:20:17;;;;;;;;;;;;;;;;;;5081673;28;1179;-58
2021/08/20 02:22:42;;;;;;;;;;;;;;;;;;5080877;28;1574;-57
2021/08/20 02:25:08;;;;;;;;;;;;;;;;;;5082181;28;1269;-58
2021/08/20 02:27:33;;;;;;;;;;;;;;;;;;5076662;28;1721;-58
2021/08/20 02:29:58;;;;;;;;;;;;;;;;;;5080405;28;1295;-57
2021/08/20 02:32:23;;;;;;;;;;;;;;;;;;5082549;28;1180;-57
2021/08/20 02:34:48;;;;;;;;;;;;;;;;;;5081549;28;1213;-57
2021/08/20 02:37:13;;;;;;;;;;;;;;;;;;5080662;28;1582;-57
2021/08/20 02:39:39;;;;;;;;;;;;;;;;;;5080795;28;1969;-57
2021/08/20 02:42:04;;;;;;;;;;;;;;;;;;5081780;28;1072;-57
2021/08/20 02:44:29;;;;;;;;;;;;;;;;;;5080112;28;1824;-57
2021/08/20 02:46:54;;;;;;;;;;;;;;;;;;5077702;28;1538;-57
2021/08/20 02:49:20;;;;;;;;;;;;;;;;;;5081388;28;1525;-58
2021/08/20 02:51:45;;;;;;;;;;;;;;;;;;5080713;28;1180;-58
2021/08/20 02:54:10;;;;;;;;;;;;;;;;;;5077713;28;2152;-56
2021/08/20 02:56:35;;;;;;;;;;;;;;;;;;5079623;28;1211;-57
2021/08/20 02:59:00;;;;;;;;;;;;;;;;;;5075740;28;1910;-58
2021/08/20 03:01:25;;;;;;;;;;;;;;;;;;5080837;28;1227;-57
2021/08/20 03:03:52;;;;;;;;;;;;;;;;;;5078922;28;1220;-57
2021/08/20 03:06:17;;;;;;;;;;;;;;;;;;5080307;28;1582;-57
2021/08/20 03:08:42;;;;;;;;;;;;;;;;;;5079772;28;1346;-57
2021/08/20 03:11:07;;;;;;;;;;;;;;;;;;5078940;28;1184;-57
2021/08/20 03:13:33;;;;;;;;;;;;;;;;;;5077753;28;1618;-57
2021/08/20 03:15:58;;;;;;;;;;;;;;;;;;5080718;28;1353;-57
2021/08/20 03:18:23;;;;;;;;;;;;;;;;;;5079539;28;1911;-57
2021/08/20 03:20:48;;;;;;;;;;;;;;;;;;5075722;28;1570;-57
2021/08/20 03:23:14;;;;;;;;;;;;;;;;;;5080447;28;1175;-58
2021/08/20 03:25:39;;;;;;;;;;;;;;;;;;5080790;28;1425;-58
2021/08/20 03:28:06;;;;;;;;;;;;;;;;;;5077913;28;1630;-57
2021/08/20 03:30:31;;;;;;;;;;;;;;;;;;5080428;28;1240;-57
2021/08/20 03:32:56;;;;;;;;;;;;;;;;;;5080703;28;1203;-57
2021/08/20 03:35:21;;;;;;;;;;;;;;;;;;5078428;28;1666;-58
2021/08/20 03:37:46;;;;;;;;;;;;;;;;;;5080993;28;1898;-57
2021/08/20 03:40:12;;;;;;;;;;;;;;;;;;5079599;28;1489;-58
2021/08/20 03:42:37;;;;;;;;;;;;;;;;;;5079468;28;1586;-58
2021/08/20 03:45:02;;;;;;;;;;;;;;;;;;5079658;28;1470;-57
2021/08/20 03:47:28;;;;;;;;;;;;;;;;;;5080771;28;1302;-58
2021/08/20 03:49:53;;;;;;;;;;;;;;;;;;5079619;28;1239;-58
2021/08/20 03:52:18;;;;;;;;;;;;;;;;;;5077812;28;1527;-58
2021/08/20 03:54:43;;;;;;;;;;;;;;;;;;5082042;28;1315;-57
2021/08/20 03:57:08;;;;;;;;;;;;;;;;;;5098549;22;4143;-91
2021/08/20 03:59:33;;;;;;;;;;;;;;;;;;5087935;28;1992;-91
2021/08/20 04:02:03;;;;;;;;;;;;;;;;;;5089851;28;1467;-91
2021/08/20 04:04:28;;;;;;;;;;;;;;;;;;5089213;28;1481;-92
2021/08/20 04:06:53;;;;;;;;;;;;;;;;;;5099909;28;1619;-91
2021/08/20 04:09:18;;;;;;;;;;;;;;;;;;5100308;28;1286;-90
2021/08/20 04:11:43;;;;;;;;;;;;;;;;;;5100763;28;1179;-91
2021/08/20 04:14:09;;;;;;;;;;;;;;;;;;5097322;28;1553;-91
2021/08/20 04:16:36;;;;;;;;;;;;;;;;;;5102072;28;1352;-91
2021/08/20 04:19:01;;;;;;;;;;;;;;;;;;5098653;28;1953;-91
2021/08/20 04:21:26;;;;;;;;;;;;;;;;;;5101769;28;1089;-90
2021/08/20 04:23:52;;;;;;;;;;;;;;;;;;5082079;28;1407;-91
2021/08/20 04:26:17;;;;;;;;;;;;;;;;;;5101030;28;1581;-91
2021/08/20 04:28:42;;;;;;;;;;;;;;;;;;5099244;28;1557;-91
2021/08/20 04:31:07;;;;;;;;;;;;;;;;;;5101980;28;1333;-90
2021/08/20 04:33:33;;;;;;;;;;;;;;;;;;5083610;28;1223;-90
2021/08/20 04:35:58;;;;;;;;;;;;;;;;;;5101294;28;1245;-90
2021/08/20 04:38:23;;;;;;;;;;;;;;;;;;5097644;28;1914;-91
2021/08/20 04:40:48;;;;;;;;;;;;;;;;;;5100945;28;1116;-90
2021/08/20 04:43:13;;;;;;;;;;;;;;;;;;5096918;28;1560;-91
2021/08/20 04:45:39;;;;;;;;;;;;;;;;;;5099632;28;1448;-90
2021/08/20 04:48:04;;;;;;;;;;;;;;;;;;5099701;28;1441;-91
2021/08/20 04:50:30;;;;;;;;;;;;;;;;;;5095952;28;1748;-91
2021/08/20 04:52:58;;;;;;;;;;;;;;;;;;5099029;28;1444;-90
2021/08/20 04:55:23;;;;;;;;;;;;;;;;;;5100741;28;1318;-92
2021/08/20 04:57:49;;;;;;;;;;;;;;;;;;5097987;28;1967;-91
2021/08/20 05:00:14;;;;;;;;;;;;;;;;;;5101009;28;1325;-92
2021/08/20 05:02:39;;;;;;;;;;;;;;;;;;5102098;28;1139;-91
2021/08/20 05:05:05;;;;;;;;;;;;;;;;;;5100709;28;1124;-91
2021/08/20 05:07:30;;;;;;;;;;;;;;;;;;5098049;28;1487;-91
2021/08/20 05:09:56;;;;;;;;;;;;;;;;;;5083516;28;1208;-91
2021/08/20 05:12:21;;;;;;;;;;;;;;;;;;5079868;28;1599;-90
2021/08/20 05:14:46;;;;;;;;;;;;;;;;;;5105639;28;1251;-91
2021/08/20 05:17:11;;;;;;;;;;;;;;;;;;5101024;28;1366;-90
2021/08/20 05:19:36;;;;;;;;;;;;;;;;;;5105554;28;1974;-91
2021/08/20 05:22:02;;;;;;;;;;;;;;;;;;5101742;28;1561;-90
2021/08/20 05:24:27;;;;;;;;;;;;;;;;;;5106447;28;1160;-90
2021/08/20 05:26:52;;;;;;;;;;;;;;;;;;5081760;28;1329;-94
2021/08/20 05:29:17;;;;;;;;;;;;;;;;;;5094340;28;1537;-90
2021/08/20 05:31:42;;;;;;;;;;;;;;;;;;5104442;28;1279;-92
2021/08/20 05:34:07;;;;;;;;;;;;;;;;;;5106171;28;1096;-91
2021/08/20 05:36:33;;;;;;;;;;;;;;;;;;5102746;28;1673;-91
2021/08/20 05:38:58;;;;;;;;;;;;;;;;;;5104586;28;1905;-91
2021/08/20 05:41:23;;;;;;;;;;;;;;;;;;5104904;28;1350;-91
2021/08/20 05:43:48;;;;;;;;;;;;;;;;;;5102838;28;1553;-89
2021/08/20 05:46:13;;;;;;;;;;;;;;;;;;5102249;28;1440;-91
2021/08/20 05:48:39;;;;;;;;;;;;;;;;;;5087393;28;1176;-91
2021/08/20 05:51:04;;;;;;;;;;;;;;;;;;5084369;28;1100;-89
2021/08/20 05:53:30;;;;;;;;;;;;;;;;;;5104540;28;1541;-90
2021/08/20 05:55:56;;;;;;;;;;;;;;;;;;5107568;28;1413;-90
2021/08/20 05:58:21;;;;;;;;;;;;;;;;;;5103513;28;1969;-90
2021/08/20 06:00:48;;;;;;;;;;;;;;;;;;5103044;28;1478;-91
2021/08/20 06:03:20;;;;;;;;;;;;;;;;;;5105378;28;1096;-91
2021/08/20 06:05:45;;;;;;;;;;;;;;;;;;5103200;28;1655;-92
2021/08/20 06:08:11;;;;;;;;;;;;;;;;;;5105782;28;1131;-90
2021/08/20 06:10:36;;;;;;;;;;;;;;;;;;5103002;28;1456;-90
2021/08/20 06:13:02;;;;;;;;;;;;;;;;;;5103313;28;1632;-90
2021/08/20 06:15:28;;;;;;;;;;;;;;;;;;5101645;28;1496;-90
2021/08/20 06:17:53;;;;;;;;;;;;;;;;;;5105790;28;1878;-91
2021/08/20 06:20:18;;;;;;;;;;;;;;;;;;5103716;28;1262;-90
2021/08/20 06:22:43;;;;;;;;;;;;;;;;;;5101125;28;1660;-91
2021/08/20 06:25:10;;;;;;;;;;;;;;;;;;5102693;28;1381;-90
2021/08/20 06:27:35;;;;;;;;;;;;;;;;;;5102966;28;1545;-91
2021/08/20 06:30:00;;;;;;;;;;;;;;;;;;5102076;28;1294;-91
2021/08/20 06:32:25;;;;;;;;;;;;;;;;;;5103380;28;1155;-90
2021/08/20 06:34:51;;;;;;;;;;;;;;;;;;5102451;28;1391;-90
2021/08/20 06:37:16;;;;;;;;;;;;;;;;;;5102276;28;1579;-91
2021/08/20 06:39:41;;;;;;;;;;;;;;;;;;5102755;28;1970;-90
2021/08/20 06:42:06;;;;;;;;;;;;;;;;;;5104143;28;1085;-91
2021/08/20 06:44:31;;;;;;;;;;;;;;;;;;5101501;28;1764;-90
2021/08/20 06:46:56;;;;;;;;;;;;;;;;;;5101835;28;1345;-91
2021/08/20 06:49:22;;;;;;;;;;;;;;;;;;5104563;28;1124;-91
2021/08/20 06:51:47;;;;;;;;;;;;;;;;;;5098889;28;1568;-92
2021/08/20 06:54:12;;;;;;;;;;;;;;;;;;5102348;28;1196;-90
2021/08/20 06:56:37;;;;;;;;;;;;;;;;;;5102439;28;1281;-91
2021/08/20 06:59:02;;;;;;;;;;;;;;;;;;5100972;28;1918;-90
2021/08/20 07:01:27;;;;;;;;;;;;;;;;;;5103419;28;1112;-91
2021/08/20 07:03:53;;;;;;;;;;;;;;;;;;5100856;28;1162;-91
2021/08/20 07:06:19;;;;;;;;;;;;;;;;;;5102053;28;1651;-91
2021/08/20 07:08:44;;;;;;;;;;;;;;;;;;5097435;28;1658;-90
2021/08/20 07:11:09;;;;;;;;;;;;;;;;;;5102785;28;1441;-90
2021/08/20 07:13:34;;;;;;;;;;;;;;;;;;5100503;28;1556;-90
2021/08/20 07:16:00;;;;;;;;;;;;;;;;;;5097256;28;1440;-90
2021/08/20 07:18:25;;;;;;;;;;;;;;;;;;5101128;28;1909;-90
2021/08/20 07:20:50;;;;;;;;;;;;;;;;;;5100828;28;1508;-90
2021/08/20 07:23:15;;;;;;;;;;;;;;;;;;5102544;28;1706;-90
2021/08/20 07:25:40;;;;;;;;;;;;;;;;;;5097492;28;1561;-90
2021/08/20 07:28:05;;;;;;;;;;;;;;;;;;5100364;28;1651;-90
2021/08/20 07:30:31;;;;;;;;;;;;;;;;;;5083275;28;1242;-90
2021/08/20 07:32:56;;;;;;;;;;;;;;;;;;5101978;28;1148;-90
2021/08/20 07:35:21;;;;;;;;;;;;;;;;;;5097524;28;1576;-90
2021/08/20 07:37:46;;;;;;;;;;;;;;;;;;5100460;28;1906;-91
2021/08/20 07:40:11;;;;;;;;;;;;;;;;;;5100142;28;1719;-90
2021/08/20 07:42:37;;;;;;;;;;;;;;;;;;5098321;28;1545;-90
2021/08/20 07:45:02;;;;;;;;;;;;;;;;;;5103454;28;1423;-90
2021/08/20 07:47:27;;;;;;;;;;;;;;;;;;5083656;28;1180;-91
2021/08/20 07:49:52;;;;;;;;;;;;;;;;;;5100688;28;1274;-91
2021/08/20 07:52:17;;;;;;;;;;;;;;;;;;5099367;28;1687;-90
2021/08/20 07:54:43;;;;;;;;;;;;;;;;;;5101352;28;1361;-91
2021/08/20 07:57:08;;;;;;;;;;;;;;;;;;5100352;28;1500;-91
2021/08/20 07:59:34;;;;;;;;;;;;;;;;;;5099531;28;1938;-91
2021/08/20 08:02:04;;;;;;;;;;;;;;;;;;5100652;28;1330;-91
2021/08/20 08:04:29;;;;;;;;;;;;;;;;;;5100344;28;1325;-91
2021/08/20 08:06:55;;;;;;;;;;;;;;;;;;5097178;28;1481;-90
2021/08/20 08:09:20;;;;;;;;;;;;;;;;;;5100128;28;1204;-91
2021/08/20 08:11:45;;;;;;;;;;;;;;;;;;5099769;28;1453;-90
2021/08/20 08:14:10;;;;;;;;;;;;;;;;;;5100815;28;1565;-88
2021/08/20 08:16:36;;;;;;;;;;;;;;;;;;5100799;28;1433;-88
2021/08/20 08:19:02;;;;;;;;;;;;;;;;;;5080666;28;1910;-88
2021/08/20 08:21:27;;;;;;;;;;;;;;;;;;5082568;28;1200;-88
2021/08/20 08:23:52;;;;;;;;;;;;;;;;;;5100855;28;1433;-89
2021/08/20 08:26:17;;;;;;;;;;;;;;;;;;5080578;28;1541;-86
2021/08/20 08:28:42;;;;;;;;;;;;;;;;;;5076564;28;1555;-86
2021/08/20 08:31:08;;;;;;;;;;;;;;;;;;5097360;28;1755;-86
2021/08/20 08:33:33;;;;;;;;;;;;;;;;;;5097103;28;1337;-86
2021/08/20 08:35:58;;;;;;;;;;;;;;;;;;5098705;28;1296;-86
2021/08/20 08:38:23;;;;;;;;;;;;;;;;;;5095590;28;1973;-86
2021/08/20 08:40:49;;;;;;;;;;;;;;;;;;5096067;28;1612;-87
2021/08/20 08:43:17;;;;;;;;;;;;;;;;;;5094684;28;1560;-87
2021/08/20 08:45:42;;;;;;;;;;;;;;;;;;5099593;28;1368;-87
2021/08/20 08:48:08;;;;;;;;;;;;;;;;;;5097574;28;1560;-86
2021/08/20 08:50:34;;;;;;;;;;;;;;;;;;5082158;28;1010;-86
2021/08/20 08:52:59;;;;;;;;;;;;;;;;;;5074938;28;1636;-87
2021/08/20 08:55:24;;;;;;;;;;;;;;;;;;5103891;28;1276;-86
2021/08/20 08:57:49;;;;;;;;;;;;;;;;;;5093630;28;1963;-88
2021/08/20 09:00:18;;;;;;;;;;;;;;;;;;5099986;28;1211;-87
2021/08/20 09:02:46;;;;;;;;;;;;;;;;;;5076506;28;1405;-86
2021/08/20 09:05:11;;;;;;;;;;;;;;;;;;5094283;28;1853;-87
2021/08/20 09:07:37;;;;;;;;;;;;;;;;;;5098438;28;1219;-87
2021/08/20 09:10:18;;;;;;;;;;;;;;;;;;5101633;28;1365;-87
2021/08/20 09:12:50;;;;;;;;;;;;;;;;;;5096592;28;1567;-87
2021/08/20 09:15:15;;;;;;;;;;;;;;;;;;5099369;28;1286;-87
2021/08/20 09:17:41;;;;;;;;;;;;;;;;;;5097850;28;1957;-87
2021/08/20 09:20:16;;;;;;;;;;;;;;;;;;5076634;28;1554;-86
2021/08/20 09:22:41;;;;;;;;;;;;;;;;;;5097003;28;1340;-85
2021/08/20 09:25:07;;;;;;;;;;;;;;;;;;5097453;28;1361;-88
2021/08/20 09:27:32;;;;;;;;;;;;;;;;;;5095839;28;1549;-88
2021/08/20 09:30:07;;;;;;;;;;;;;;;;;;5097508;28;1317;-86
2021/08/20 09:32:32;;;;;;;;;;;;;;;;;;5080578;28;1121;-87
2021/08/20 09:34:58;;;;;;;;;;;;;;;;;;5095598;28;1632;-87
2021/08/20 09:37:23;;;;;;;;;;;;;;;;;;5095052;28;1298;-86
2021/08/20 09:39:49;;;;;;;;;;;;;;;;;;5097035;28;1961;-87
2021/08/20 09:42:16;;;;;;;;;;;;;;;;;;5094809;28;1479;-88
2021/08/20 09:44:42;;;;;;;;;;;;;;;;;;5098669;28;1382;-87
2021/08/20 09:47:07;;;;;;;;;;;;;;;;;;5078729;28;1151;-87
2021/08/20 09:49:54;;;;;;;;;;;;;;;;;;5074953;28;1644;-87
2021/08/20 09:52:29;;;;;;;;;;;;;;;;;;5095863;28;1164;-88
2021/08/20 09:54:54;;;;;;;;;;;;;;;;;;5097692;28;1310;-87
2021/08/20 09:57:20;;;;;;;;;;;;;;;;;;5093631;28;1588;-87
2021/08/20 09:59:46;;;;;;;;;;;;;;;;;;5095106;28;1969;-87
2021/08/20 10:02:11;;;;;;;;;;;;;;;;;;5081636;28;1505;-87
2021/08/20 10:04:38;;;;;;;;;;;;;;;;;;5071286;28;1633;-87
2021/08/20 10:07:03;;;;;;;;;;;;;;;;;;5084696;28;1120;-89
2021/08/20 10:09:29;;;;;;;;;;;;;;;;;;5108531;28;1444;-86
2021/08/20 10:11:54;;;;;;;;;;;;;;;;;;5100007;28;1115;-87
2021/08/20 10:14:20;;;;;;;;;;;;;;;;;;5093697;28;1663;-88
2021/08/20 10:16:45;;;;;;;;;;;;;;;;;;5082349;28;1482;-87
2021/08/20 10:19:10;;;;;;;;;;;;;;;;;;5096399;28;1931;-86
2021/08/20 10:21:36;;;;;;;;;;;;;;;;;;5080781;28;1437;-86
2021/08/20 10:24:01;;;;;;;;;;;;;;;;;;5081982;28;1128;-85
2021/08/20 10:26:27;;;;;;;;;;;;;;;;;;5100638;28;1409;-86
2021/08/20 10:28:52;;;;;;;;;;;;;;;;;;5081374;28;1558;-85
2021/08/20 10:31:18;;;;;;;;;;;;;;;;;;5098398;28;1385;-85
2021/08/20 10:33:43;;;;;;;;;;;;;;;;;;5099005;28;1398;-86
2021/08/20 10:36:09;;;;;;;;;;;;;;;;;;5100256;28;1366;-86
